createdAt,value
2022-09-21T00:00:40.445Z,1020.65
2022-09-21T00:01:40.435Z,1020.64
2022-09-21T00:02:40.349Z,1020.62
2022-09-21T00:03:40.314Z,1020.62
2022-09-21T00:04:40.265Z,1020.59
2022-09-21T00:05:40.224Z,1020.61
2022-09-21T00:06:40.198Z,1020.58
2022-09-21T00:07:40.140Z,1020.58
2022-09-21T00:08:40.101Z,1020.57
2022-09-21T00:09:40.055Z,1020.58
2022-09-21T00:10:40.016Z,1020.56
2022-09-21T00:11:39.973Z,1020.55
2022-09-21T00:12:39.942Z,1020.56
2022-09-21T00:13:39.890Z,1020.56
2022-09-21T00:14:39.851Z,1020.61
2022-09-21T00:15:39.808Z,1020.57
2022-09-21T00:16:39.825Z,1020.57
2022-09-21T00:17:39.728Z,1020.59
2022-09-21T00:18:39.695Z,1020.56
2022-09-21T00:19:39.642Z,1020.55
2022-09-21T00:20:39.600Z,1020.59
2022-09-21T00:21:39.558Z,1020.59
2022-09-21T00:22:39.519Z,1020.60
2022-09-21T00:23:39.486Z,1020.60
2022-09-21T00:24:39.433Z,1020.65
2022-09-21T00:25:39.393Z,1020.64
2022-09-21T00:26:39.350Z,1020.63
2022-09-21T00:27:39.321Z,1020.63
2022-09-21T00:28:39.267Z,1020.64
2022-09-21T00:29:39.233Z,1020.66
2022-09-21T00:30:39.189Z,1020.67
2022-09-21T00:31:39.192Z,1020.64
2022-09-21T00:32:39.107Z,1020.67
2022-09-21T00:33:39.060Z,1020.62
2022-09-21T00:34:39.036Z,1020.68
2022-09-21T00:35:38.974Z,1020.67
2022-09-21T00:36:38.936Z,1020.65
2022-09-21T00:37:38.892Z,1020.65
2022-09-21T00:38:38.851Z,1020.65
2022-09-21T00:39:38.820Z,1020.69
2022-09-21T00:40:38.812Z,1020.70
2022-09-21T00:41:38.727Z,1020.67
2022-09-21T00:42:38.685Z,1020.68
2022-09-21T00:43:38.641Z,1020.67
2022-09-21T00:44:38.602Z,1020.71
2022-09-21T00:45:38.628Z,1020.70
2022-09-21T00:46:38.520Z,1020.70
2022-09-21T00:47:38.477Z,1020.68
2022-09-21T00:48:38.447Z,1020.70
2022-09-21T00:49:38.399Z,1020.71
2022-09-21T00:50:38.357Z,1020.70
2022-09-21T00:51:38.312Z,1020.73
2022-09-21T00:52:38.269Z,1020.72
2022-09-21T00:53:38.227Z,1020.68
2022-09-21T00:54:38.200Z,1020.72
2022-09-21T00:55:38.152Z,1020.71
2022-09-21T00:56:38.104Z,1020.68
2022-09-21T00:57:38.063Z,1020.70
2022-09-21T00:58:38.026Z,1020.71
2022-09-21T00:59:37.980Z,1020.71
2022-09-21T01:00:37.998Z,1020.71
2022-09-21T01:01:37.896Z,1020.73
2022-09-21T01:02:37.857Z,1020.75
2022-09-21T01:03:37.817Z,1020.69
2022-09-21T01:04:37.772Z,1020.70
2022-09-21T01:05:37.736Z,1020.68
2022-09-21T01:06:37.699Z,1020.69
2022-09-21T01:07:37.644Z,1020.70
2022-09-21T01:08:37.606Z,1020.70
2022-09-21T01:09:37.563Z,1020.70
2022-09-21T01:10:37.526Z,1020.74
2022-09-21T01:11:37.479Z,1020.67
2022-09-21T01:12:37.449Z,1020.71
2022-09-21T01:13:37.397Z,1020.71
2022-09-21T01:14:37.360Z,1020.71
2022-09-21T01:15:37.312Z,1020.72
2022-09-21T01:16:37.299Z,1020.72
2022-09-21T01:17:37.231Z,1020.71
2022-09-21T01:18:37.201Z,1020.70
2022-09-21T01:19:37.147Z,1020.73
2022-09-21T01:20:37.105Z,1020.70
2022-09-21T01:21:37.065Z,1020.71
2022-09-21T01:22:37.023Z,1020.70
2022-09-21T01:23:36.980Z,1020.74
2022-09-21T01:24:36.954Z,1020.71
2022-09-21T01:25:36.897Z,1020.72
2022-09-21T01:26:36.862Z,1020.71
2022-09-21T01:27:36.819Z,1020.78
2022-09-21T01:28:36.775Z,1020.75
2022-09-21T01:29:36.739Z,1020.70
2022-09-21T01:30:36.711Z,1020.71
2022-09-21T01:31:36.693Z,1020.70
2022-09-21T01:32:36.604Z,1020.77
2022-09-21T01:33:36.563Z,1020.75
2022-09-21T01:34:36.524Z,1020.80
2022-09-21T01:35:36.477Z,1020.79
2022-09-21T01:36:36.449Z,1020.82
2022-09-21T01:37:36.395Z,1020.81
2022-09-21T01:38:36.369Z,1020.81
2022-09-21T01:39:36.315Z,1020.81
2022-09-21T01:40:36.315Z,1020.78
2022-09-21T01:41:36.226Z,1020.78
2022-09-21T01:42:36.214Z,1020.80
2022-09-21T01:43:36.143Z,1020.78
2022-09-21T01:44:36.106Z,1020.77
2022-09-21T01:45:36.079Z,1020.78
2022-09-21T01:46:36.020Z,1020.75
2022-09-21T01:47:35.978Z,1020.76
2022-09-21T01:48:35.945Z,1020.75
2022-09-21T01:49:35.897Z,1020.77
2022-09-21T01:50:35.850Z,1020.76
2022-09-21T01:51:35.809Z,1020.74
2022-09-21T01:52:35.768Z,1020.75
2022-09-21T01:53:35.725Z,1020.76
2022-09-21T01:54:35.695Z,1020.77
2022-09-21T01:55:35.643Z,1020.74
2022-09-21T01:56:35.600Z,1020.74
2022-09-21T01:57:35.560Z,1020.70
2022-09-21T01:58:35.520Z,1020.72
2022-09-21T01:59:35.474Z,1020.71
2022-09-21T02:00:35.513Z,1020.70
2022-09-21T02:01:35.445Z,1020.71
2022-09-21T02:02:35.352Z,1020.73
2022-09-21T02:03:35.305Z,1020.69
2022-09-21T02:04:35.265Z,1020.75
2022-09-21T02:05:35.267Z,1020.73
2022-09-21T02:06:35.192Z,1020.68
2022-09-21T02:07:35.137Z,1020.69
2022-09-21T02:08:35.099Z,1020.68
2022-09-21T02:09:35.053Z,1020.66
2022-09-21T02:10:35.017Z,1020.68
2022-09-21T02:11:34.982Z,1020.68
2022-09-21T02:12:34.929Z,1020.68
2022-09-21T02:13:34.884Z,1020.67
2022-09-21T02:14:34.846Z,1020.67
2022-09-21T02:15:34.805Z,1020.66
2022-09-21T02:16:34.762Z,1020.63
2022-09-21T02:17:34.734Z,1020.67
2022-09-21T02:18:34.681Z,1020.69
2022-09-21T02:19:34.633Z,1020.66
2022-09-21T02:20:34.595Z,1020.65
2022-09-21T02:21:34.550Z,1020.68
2022-09-21T02:22:34.512Z,1020.67
2022-09-21T02:23:34.476Z,1020.66
2022-09-21T02:24:34.426Z,1020.69
2022-09-21T02:25:34.383Z,1020.67
2022-09-21T02:26:34.341Z,1020.67
2022-09-21T02:27:34.310Z,1020.68
2022-09-21T02:28:34.259Z,1020.68
2022-09-21T02:29:34.218Z,1020.68
2022-09-21T02:30:34.172Z,1020.66
2022-09-21T02:31:34.243Z,1020.66
2022-09-21T02:32:34.091Z,1020.65
2022-09-21T02:33:34.060Z,1020.68
2022-09-21T02:34:34.004Z,1020.72
2022-09-21T02:35:33.984Z,1020.74
2022-09-21T02:36:33.924Z,1020.73
2022-09-21T02:37:33.878Z,1020.79
2022-09-21T02:38:33.837Z,1020.75
2022-09-21T02:39:33.804Z,1020.73
2022-09-21T02:40:33.802Z,1020.72
2022-09-21T02:41:33.714Z,1020.71
2022-09-21T02:42:33.668Z,1020.71
2022-09-21T02:43:33.622Z,1020.73
2022-09-21T02:44:33.592Z,1020.71
2022-09-21T02:45:33.540Z,1020.72
2022-09-21T02:46:33.519Z,1020.70
2022-09-21T02:47:33.455Z,1020.69
2022-09-21T02:48:33.415Z,1020.71
2022-09-21T02:49:33.383Z,1020.67
2022-09-21T02:50:33.346Z,1020.69
2022-09-21T02:51:33.286Z,1020.68
2022-09-21T02:52:33.246Z,1020.67
2022-09-21T02:53:33.202Z,1020.67
2022-09-21T02:54:33.163Z,1020.67
2022-09-21T02:55:33.128Z,1020.64
2022-09-21T02:56:33.081Z,1020.63
2022-09-21T02:57:33.033Z,1020.66
2022-09-21T02:58:32.992Z,1020.62
2022-09-21T02:59:32.951Z,1020.61
2022-09-21T03:00:32.923Z,1020.63
2022-09-21T03:01:32.927Z,1020.63
2022-09-21T03:02:32.836Z,1020.61
2022-09-21T03:03:32.779Z,1020.62
2022-09-21T03:04:32.738Z,1020.62
2022-09-21T03:05:32.696Z,1020.60
2022-09-21T03:06:32.654Z,1020.62
2022-09-21T03:07:32.621Z,1020.60
2022-09-21T03:08:32.569Z,1020.63
2022-09-21T03:09:32.538Z,1020.64
2022-09-21T03:10:32.486Z,1020.62
2022-09-21T03:11:32.442Z,1020.60
2022-09-21T03:12:32.400Z,1020.62
2022-09-21T03:13:32.356Z,1020.61
2022-09-21T03:14:32.316Z,1020.59
2022-09-21T03:15:32.288Z,1020.63
2022-09-21T03:16:32.251Z,1020.63
2022-09-21T03:17:32.188Z,1020.63
2022-09-21T03:18:32.146Z,1020.61
2022-09-21T03:19:32.108Z,1020.62
2022-09-21T03:20:32.062Z,1020.65
2022-09-21T03:21:32.036Z,1020.63
2022-09-21T03:22:31.991Z,1020.63
2022-09-21T03:23:31.934Z,1020.64
2022-09-21T03:24:31.893Z,1020.66
2022-09-21T03:25:31.900Z,1020.67
2022-09-21T03:26:31.810Z,1020.67
2022-09-21T03:27:31.762Z,1020.69
2022-09-21T03:28:31.732Z,1020.64
2022-09-21T03:29:31.680Z,1020.65
2022-09-21T03:30:31.637Z,1020.63
2022-09-21T03:31:31.639Z,1020.65
2022-09-21T03:32:31.552Z,1020.64
2022-09-21T03:33:31.511Z,1020.64
2022-09-21T03:34:31.480Z,1020.67
2022-09-21T03:35:31.425Z,1020.63
2022-09-21T03:36:31.381Z,1020.62
2022-09-21T03:37:31.343Z,1020.64
2022-09-21T03:38:31.357Z,1020.65
2022-09-21T03:39:31.267Z,1020.64
2022-09-21T03:40:31.264Z,1020.67
2022-09-21T03:41:31.173Z,1020.67
2022-09-21T03:42:31.129Z,1020.68
2022-09-21T03:43:31.098Z,1020.67
2022-09-21T03:44:31.047Z,1020.68
2022-09-21T03:45:31.006Z,1020.70
2022-09-21T03:46:31.016Z,1020.72
2022-09-21T03:47:30.917Z,1020.68
2022-09-21T03:48:30.878Z,1020.66
2022-09-21T03:49:30.835Z,1020.69
2022-09-21T03:50:30.794Z,1020.71
2022-09-21T03:51:30.749Z,1020.71
2022-09-21T03:52:30.719Z,1020.72
2022-09-21T03:53:30.679Z,1020.71
2022-09-21T03:54:30.620Z,1020.69
2022-09-21T03:55:30.578Z,1020.69
2022-09-21T03:56:30.533Z,1020.70
2022-09-21T03:57:30.501Z,1020.69
2022-09-21T03:58:40.008Z,1020.66
2022-09-21T03:59:30.406Z,1020.68
2022-09-21T04:00:30.363Z,1020.68
2022-09-21T04:01:30.380Z,1020.70
2022-09-21T04:02:30.316Z,1020.66
2022-09-21T04:03:30.236Z,1020.68
2022-09-21T04:04:30.206Z,1020.69
2022-09-21T04:05:30.152Z,1020.69
2022-09-21T04:06:30.109Z,1020.68
2022-09-21T04:07:30.066Z,1020.62
2022-09-21T04:08:30.023Z,1020.67
2022-09-21T04:09:29.981Z,1020.69
2022-09-21T04:10:29.953Z,1020.64
2022-09-21T04:11:29.895Z,1020.68
2022-09-21T04:12:29.852Z,1020.70
2022-09-21T04:13:29.810Z,1020.65
2022-09-21T04:14:29.767Z,1020.67
2022-09-21T04:15:29.797Z,1020.67
2022-09-21T04:16:29.699Z,1020.67
2022-09-21T04:17:29.640Z,1020.69
2022-09-21T04:18:29.608Z,1020.73
2022-09-21T04:19:29.554Z,1020.71
2022-09-21T04:20:29.512Z,1020.67
2022-09-21T04:21:29.469Z,1020.74
2022-09-21T04:22:29.426Z,1020.71
2022-09-21T04:23:29.384Z,1020.76
2022-09-21T04:24:29.354Z,1020.76
2022-09-21T04:25:29.301Z,1020.79
2022-09-21T04:26:29.255Z,1020.78
2022-09-21T04:27:29.214Z,1020.76
2022-09-21T04:28:29.171Z,1020.79
2022-09-21T04:29:29.128Z,1020.78
2022-09-21T04:30:29.096Z,1020.82
2022-09-21T04:31:29.095Z,1020.83
2022-09-21T04:32:28.998Z,1020.79
2022-09-21T04:33:28.959Z,1020.81
2022-09-21T04:34:28.978Z,1020.80
2022-09-21T04:35:28.875Z,1020.83
2022-09-21T04:36:30.278Z,1020.81
2022-09-21T04:37:28.787Z,1020.83
2022-09-21T04:38:28.745Z,1020.82
2022-09-21T04:39:28.702Z,1020.85
2022-09-21T04:40:28.842Z,1020.84
2022-09-21T04:41:28.617Z,1020.82
2022-09-21T04:42:28.584Z,1020.85
2022-09-21T04:43:28.530Z,1020.85
2022-09-21T04:44:28.486Z,1020.88
2022-09-21T04:45:28.447Z,1020.89
2022-09-21T04:46:28.438Z,1020.89
2022-09-21T04:47:28.361Z,1020.93
2022-09-21T04:48:28.317Z,1020.90
2022-09-21T04:49:28.276Z,1020.89
2022-09-21T04:50:28.234Z,1020.87
2022-09-21T04:51:28.189Z,1020.88
2022-09-21T04:52:28.157Z,1020.90
2022-09-21T04:53:28.105Z,1020.93
2022-09-21T04:54:28.061Z,1020.91
2022-09-21T04:55:28.019Z,1020.92
2022-09-21T04:56:27.977Z,1020.91
2022-09-21T04:57:27.939Z,1020.90
2022-09-21T04:58:27.906Z,1020.94
2022-09-21T04:59:27.852Z,1020.95
2022-09-21T05:00:27.807Z,1020.97
2022-09-21T05:01:27.822Z,1020.96
2022-09-21T05:02:27.723Z,1020.94
2022-09-21T05:03:27.703Z,1020.95
2022-09-21T05:04:27.634Z,1020.96
2022-09-21T05:05:27.593Z,1020.99
2022-09-21T05:06:27.551Z,1021.01
2022-09-21T05:07:27.507Z,1020.98
2022-09-21T05:08:27.463Z,1021.02
2022-09-21T05:09:27.433Z,1021.01
2022-09-21T05:10:27.380Z,1021.03
2022-09-21T05:11:27.353Z,1021.05
2022-09-21T05:12:27.294Z,1021.04
2022-09-21T05:13:27.252Z,1021.02
2022-09-21T05:14:27.212Z,1021.05
2022-09-21T05:15:27.267Z,1021.08
2022-09-21T05:16:27.124Z,1021.07
2022-09-21T05:17:27.083Z,1021.11
2022-09-21T05:18:27.041Z,1021.13
2022-09-21T05:19:26.998Z,1021.12
2022-09-21T05:20:26.959Z,1021.10
2022-09-21T05:21:26.924Z,1021.15
2022-09-21T05:22:26.869Z,1021.14
2022-09-21T05:23:26.828Z,1021.18
2022-09-21T05:24:26.786Z,1021.17
2022-09-21T05:25:26.743Z,1021.18
2022-09-21T05:26:26.699Z,1021.20
2022-09-21T05:27:26.669Z,1021.24
2022-09-21T05:28:26.616Z,1021.22
2022-09-21T05:29:26.574Z,1021.24
2022-09-21T05:30:26.562Z,1021.24
2022-09-21T05:31:26.523Z,1021.29
2022-09-21T05:32:26.444Z,1021.29
2022-09-21T05:33:26.412Z,1021.30
2022-09-21T05:34:26.373Z,1021.32
2022-09-21T05:35:26.319Z,1021.30
2022-09-21T05:36:26.275Z,1021.31
2022-09-21T05:37:26.235Z,1021.31
2022-09-21T05:38:26.194Z,1021.36
2022-09-21T05:39:26.148Z,1021.36
2022-09-21T05:40:26.149Z,1021.39
2022-09-21T05:41:26.066Z,1021.39
2022-09-21T05:42:26.022Z,1021.39
2022-09-21T05:43:25.980Z,1021.42
2022-09-21T05:44:25.936Z,1021.42
2022-09-21T05:45:25.894Z,1021.43
2022-09-21T05:46:25.905Z,1021.44
2022-09-21T05:47:25.809Z,1021.41
2022-09-21T05:48:25.769Z,1021.42
2022-09-21T05:49:25.727Z,1021.47
2022-09-21T05:50:25.696Z,1021.45
2022-09-21T05:51:25.641Z,1021.41
2022-09-21T05:52:25.599Z,1021.44
2022-09-21T05:53:25.561Z,1021.46
2022-09-21T05:54:25.557Z,1021.48
2022-09-21T05:55:25.472Z,1021.45
2022-09-21T05:56:25.441Z,1021.46
2022-09-21T05:57:29.984Z,1021.47
2022-09-21T05:58:25.345Z,1021.46
2022-09-21T05:59:25.305Z,1021.46
2022-09-21T06:00:25.260Z,1021.50
2022-09-21T06:01:25.277Z,1021.50
2022-09-21T06:02:25.203Z,1021.52
2022-09-21T06:03:25.139Z,1021.53
2022-09-21T06:04:25.091Z,1021.54
2022-09-21T06:05:25.049Z,1021.53
2022-09-21T06:06:25.017Z,1021.54
2022-09-21T06:07:24.968Z,1021.59
2022-09-21T06:08:24.926Z,1021.64
2022-09-21T06:09:24.881Z,1021.68
2022-09-21T06:10:24.841Z,1021.69
2022-09-21T06:11:24.802Z,1021.69
2022-09-21T06:12:24.766Z,1021.69
2022-09-21T06:13:24.717Z,1021.74
2022-09-21T06:14:24.681Z,1021.76
2022-09-21T06:15:24.634Z,1021.79
2022-09-21T06:16:24.626Z,1021.83
2022-09-21T06:17:24.548Z,1021.86
2022-09-21T06:18:24.516Z,1021.85
2022-09-21T06:19:24.467Z,1021.88
2022-09-21T06:20:24.424Z,1021.87
2022-09-21T06:21:24.386Z,1021.87
2022-09-21T06:22:24.343Z,1021.86
2022-09-21T06:23:24.314Z,1021.91
2022-09-21T06:24:25.262Z,1021.89
2022-09-21T06:25:24.221Z,1021.87
2022-09-21T06:26:24.181Z,1021.93
2022-09-21T06:27:24.141Z,1021.95
2022-09-21T06:28:24.100Z,1021.97
2022-09-21T06:29:24.059Z,1021.98
2022-09-21T06:30:24.079Z,1021.96
2022-09-21T06:31:23.997Z,1022.00
2022-09-21T06:32:23.941Z,1022.00
2022-09-21T06:33:23.905Z,1022.02
2022-09-21T06:34:23.864Z,1022.07
2022-09-21T06:35:23.836Z,1022.07
2022-09-21T06:36:23.785Z,1022.08
2022-09-21T06:37:23.764Z,1022.10
2022-09-21T06:38:23.720Z,1022.09
2022-09-21T06:39:23.672Z,1022.05
2022-09-21T06:40:23.650Z,1022.05
2022-09-21T06:41:23.592Z,1022.09
2022-09-21T06:42:23.554Z,1022.08
2022-09-21T06:43:23.515Z,1022.10
2022-09-21T06:44:23.489Z,1022.12
2022-09-21T06:45:23.439Z,1022.13
2022-09-21T06:46:23.496Z,1022.13
2022-09-21T06:47:23.363Z,1022.16
2022-09-21T06:48:23.322Z,1022.19
2022-09-21T06:49:23.286Z,1022.22
2022-09-21T06:50:23.257Z,1022.22
2022-09-21T06:51:23.237Z,1022.22
2022-09-21T06:52:23.180Z,1022.21
2022-09-21T06:53:23.137Z,1022.22
2022-09-21T06:54:23.097Z,1022.25
2022-09-21T06:55:23.059Z,1022.29
2022-09-21T06:56:23.025Z,1022.28
2022-09-21T06:57:22.999Z,1022.26
2022-09-21T06:58:23.067Z,1022.27
2022-09-21T06:59:22.910Z,1022.25
2022-09-21T07:00:22.874Z,1022.29
2022-09-21T07:01:22.935Z,1022.30
2022-09-21T07:02:22.801Z,1022.30
2022-09-21T07:03:22.772Z,1022.30
2022-09-21T07:04:25.074Z,1022.35
2022-09-21T07:05:22.690Z,1022.37
2022-09-21T07:06:22.652Z,1022.35
2022-09-21T07:07:22.615Z,1022.34
2022-09-21T07:10:22.505Z,1022.40
2022-09-21T07:11:22.470Z,1022.42
2022-09-21T07:12:22.436Z,1022.43
2022-09-21T07:13:22.399Z,1022.47
2022-09-21T07:14:22.375Z,1022.49
2022-09-21T07:15:22.328Z,1022.48
2022-09-21T07:16:22.347Z,1022.48
2022-09-21T07:17:22.253Z,1022.47
2022-09-21T07:18:22.216Z,1022.49
2022-09-21T07:19:22.181Z,1022.53
2022-09-21T07:20:22.145Z,1022.55
2022-09-21T07:21:22.114Z,1022.58
2022-09-21T07:22:22.102Z,1022.57
2022-09-21T07:23:22.040Z,1022.55
2022-09-21T07:24:22.003Z,1022.56
2022-09-21T07:25:21.968Z,1022.58
2022-09-21T07:26:21.933Z,1022.61
2022-09-21T07:27:21.895Z,1022.67
2022-09-21T07:28:21.873Z,1022.70
2022-09-21T07:29:21.833Z,1022.68
2022-09-21T07:30:21.831Z,1022.73
2022-09-21T07:31:21.782Z,1022.77
2022-09-21T07:32:21.722Z,1022.80
2022-09-21T07:33:21.687Z,1022.81
2022-09-21T07:34:21.662Z,1022.82
2022-09-21T07:35:21.616Z,1022.81
2022-09-21T07:36:21.586Z,1022.79
2022-09-21T07:37:21.548Z,1022.82
2022-09-21T07:38:21.513Z,1022.86
2022-09-21T07:39:21.480Z,1022.87
2022-09-21T07:40:25.017Z,1022.86
2022-09-21T07:41:21.415Z,1022.88
2022-09-21T07:42:21.375Z,1022.89
2022-09-21T07:43:21.336Z,1022.91
2022-09-21T07:44:21.302Z,1022.94
2022-09-21T07:45:21.292Z,1022.95
2022-09-21T07:46:21.252Z,1022.96
2022-09-21T07:47:21.201Z,1022.99
2022-09-21T07:48:21.172Z,1023.03
2022-09-21T07:49:21.133Z,1023.02
2022-09-21T07:50:21.099Z,1022.85
2022-09-21T07:51:21.063Z,1022.98
2022-09-21T07:52:21.052Z,1023.06
2022-09-21T07:53:20.997Z,1023.03
2022-09-21T07:54:20.964Z,1023.03
2022-09-21T07:55:20.929Z,1023.02
2022-09-21T07:56:20.894Z,1023.10
2022-09-21T07:57:20.860Z,1023.09
2022-09-21T07:58:20.872Z,1023.09
2022-09-21T07:59:20.793Z,1023.10
2022-09-21T08:00:20.759Z,1023.03
2022-09-21T08:01:20.779Z,1022.92
2022-09-21T08:02:20.850Z,1023.11
2022-09-21T08:03:20.665Z,1023.12
2022-09-21T08:04:20.633Z,1023.14
2022-09-21T08:05:20.596Z,1023.12
2022-09-21T08:06:20.558Z,1023.13
2022-09-21T08:07:20.522Z,1023.08
2022-09-21T08:08:20.485Z,1023.06
2022-09-21T08:09:20.452Z,1023.05
2022-09-21T08:10:20.431Z,1023.06
2022-09-21T08:11:20.384Z,1023.08
2022-09-21T08:12:20.353Z,1023.09
2022-09-21T08:13:20.315Z,1023.09
2022-09-21T08:14:25.891Z,1023.08
2022-09-21T08:15:43.959Z,1023.07
2022-09-21T08:16:20.302Z,1023.06
2022-09-21T08:17:20.180Z,1023.04
2022-09-21T08:18:20.229Z,1023.09
2022-09-21T08:19:20.111Z,1023.06
2022-09-21T08:20:20.079Z,1023.06
2022-09-21T08:21:20.044Z,1023.06
2022-09-21T08:22:20.028Z,1023.07
2022-09-21T08:23:19.978Z,1023.08
2022-09-21T08:24:19.945Z,1023.11
2022-09-21T08:25:19.910Z,1023.12
2022-09-21T08:26:19.906Z,1023.12
2022-09-21T08:27:19.846Z,1023.09
2022-09-21T08:28:19.825Z,1023.12
2022-09-21T08:29:19.781Z,1023.12
2022-09-21T08:30:19.743Z,1023.14
2022-09-21T08:31:19.916Z,1023.16
2022-09-21T08:32:46.544Z,1023.17
2022-09-21T08:33:19.642Z,1023.15
2022-09-21T08:34:19.674Z,1023.15
2022-09-21T08:35:19.576Z,1023.09
2022-09-21T08:36:19.543Z,1023.12
2022-09-21T08:37:19.507Z,1023.17
2022-09-21T08:38:19.477Z,1023.14
2022-09-21T08:39:19.440Z,1023.16
2022-09-21T08:40:19.480Z,1023.16
2022-09-21T08:41:19.373Z,1023.12
2022-09-21T08:42:19.343Z,1023.13
2022-09-21T08:43:19.307Z,1023.13
2022-09-21T08:44:19.277Z,1023.14
2022-09-21T08:45:19.242Z,1023.11
2022-09-21T08:46:19.289Z,1022.91
2022-09-21T08:47:19.175Z,1023.14
2022-09-21T08:48:21.011Z,1023.14
2022-09-21T08:49:19.114Z,1023.00
2022-09-21T08:50:19.080Z,1022.94
2022-09-21T08:51:19.045Z,1022.94
2022-09-21T08:52:19.023Z,1022.93
2022-09-21T08:53:18.977Z,1023.04
2022-09-21T08:54:18.950Z,1023.08
2022-09-21T08:55:18.916Z,1023.10
2022-09-21T08:56:18.881Z,1023.11
2022-09-21T08:57:18.851Z,1023.07
2022-09-21T08:58:18.825Z,1023.08
2022-09-21T08:59:18.782Z,1023.11
2022-09-21T09:00:18.749Z,1023.10
2022-09-21T09:01:18.753Z,1023.06
2022-09-21T09:02:18.756Z,1023.03
2022-09-21T09:03:18.661Z,1023.07
2022-09-21T09:04:18.617Z,1023.05
2022-09-21T09:05:18.584Z,1023.08
2022-09-21T09:06:18.555Z,1023.04
2022-09-21T09:07:18.521Z,1023.04
2022-09-21T09:08:18.490Z,1023.04
2022-09-21T09:09:18.468Z,1023.01
2022-09-21T09:10:18.421Z,1023.04
2022-09-21T09:11:18.388Z,1023.02
2022-09-21T09:12:18.355Z,1023.04
2022-09-21T09:13:18.322Z,1022.99
2022-09-21T09:14:18.300Z,1023.00
2022-09-21T09:15:18.258Z,1022.99
2022-09-21T09:16:18.329Z,1022.92
2022-09-21T09:17:18.192Z,1022.83
2022-09-21T09:18:18.159Z,1022.85
2022-09-21T09:19:18.139Z,1022.82
2022-09-21T09:20:18.098Z,1022.84
2022-09-21T09:21:26.993Z,1022.82
2022-09-21T09:22:18.027Z,1022.81
2022-09-21T09:23:17.995Z,1022.82
2022-09-21T09:24:17.965Z,1022.79
2022-09-21T09:25:17.959Z,1022.84
2022-09-21T09:26:17.900Z,1022.83
2022-09-21T09:27:17.871Z,1022.87
2022-09-21T09:28:17.834Z,1022.90
2022-09-21T09:29:17.814Z,1022.86
2022-09-21T09:30:17.772Z,1022.89
2022-09-21T09:31:17.820Z,1022.82
2022-09-21T09:32:17.709Z,1022.82
2022-09-21T09:33:17.675Z,1022.80
2022-09-21T09:34:17.643Z,1022.79
2022-09-21T09:35:17.618Z,1022.83
2022-09-21T09:36:26.271Z,1022.80
2022-09-21T09:37:17.554Z,1022.84
2022-09-21T09:38:17.513Z,1022.82
2022-09-21T09:39:17.480Z,1022.77
2022-09-21T09:40:17.487Z,1022.79
2022-09-21T09:41:17.428Z,1022.80
2022-09-21T09:42:17.384Z,1022.79
2022-09-21T09:43:17.351Z,1022.78
2022-09-21T09:44:17.318Z,1022.75
2022-09-21T09:45:17.285Z,1022.74
2022-09-21T09:46:17.292Z,1022.78
2022-09-21T09:47:17.231Z,1022.77
2022-09-21T09:48:17.192Z,1022.77
2022-09-21T09:49:17.160Z,1022.74
2022-09-21T09:50:17.125Z,1022.72
2022-09-21T09:51:17.093Z,1022.75
2022-09-21T09:52:17.071Z,1022.77
2022-09-21T09:53:17.044Z,1022.73
2022-09-21T09:54:16.999Z,1022.74
2022-09-21T09:55:16.970Z,1022.73
2022-09-21T09:56:16.937Z,1022.74
2022-09-21T09:57:16.908Z,1022.75
2022-09-21T09:58:16.870Z,1022.74
2022-09-21T09:59:16.848Z,1022.73
2022-09-21T10:00:16.805Z,1022.75
2022-09-21T10:01:16.786Z,1022.73
2022-09-21T10:02:16.740Z,1022.67
2022-09-21T10:03:16.707Z,1022.69
2022-09-21T10:04:16.710Z,1022.68
2022-09-21T10:05:16.653Z,1022.68
2022-09-21T10:06:16.613Z,1022.69
2022-09-21T10:07:16.580Z,1022.72
2022-09-21T10:08:16.548Z,1022.69
2022-09-21T10:09:16.514Z,1022.73
2022-09-21T10:10:16.483Z,1022.70
2022-09-21T10:11:16.459Z,1022.71
2022-09-21T10:12:16.419Z,1022.72
2022-09-21T10:13:16.387Z,1022.74
2022-09-21T10:14:16.358Z,1022.72
2022-09-21T10:15:16.325Z,1022.74
2022-09-21T10:16:16.364Z,1022.70
2022-09-21T10:17:16.272Z,1022.72
2022-09-21T10:18:16.249Z,1022.72
2022-09-21T10:19:16.198Z,1022.73
2022-09-21T10:20:16.172Z,1022.69
2022-09-21T10:21:16.136Z,1022.67
2022-09-21T10:22:16.105Z,1022.65
2022-09-21T10:23:16.072Z,1022.65
2022-09-21T10:24:16.055Z,1022.52
2022-09-21T10:25:16.010Z,1022.42
2022-09-21T10:26:15.980Z,1022.53
2022-09-21T10:27:15.944Z,1022.54
2022-09-21T10:28:15.915Z,1022.50
2022-09-21T10:29:15.882Z,1022.56
2022-09-21T10:30:15.863Z,1022.56
2022-09-21T10:31:15.862Z,1022.56
2022-09-21T10:32:15.791Z,1022.55
2022-09-21T10:33:15.757Z,1022.57
2022-09-21T10:34:15.728Z,1022.57
2022-09-21T10:35:15.713Z,1022.58
2022-09-21T10:36:15.665Z,1022.57
2022-09-21T10:37:15.635Z,1022.57
2022-09-21T10:38:19.808Z,1022.59
2022-09-21T10:39:15.569Z,1022.58
2022-09-21T10:40:15.584Z,1022.56
2022-09-21T10:41:15.508Z,1022.54
2022-09-21T10:42:15.478Z,1022.52
2022-09-21T10:43:15.447Z,1022.51
2022-09-21T10:44:15.421Z,1022.51
2022-09-21T10:45:15.385Z,1022.50
2022-09-21T10:46:15.413Z,1022.49
2022-09-21T10:47:16.789Z,1022.49
2022-09-21T10:48:15.293Z,1022.52
2022-09-21T10:49:15.261Z,1022.50
2022-09-21T10:50:15.234Z,1022.53
2022-09-21T10:51:15.208Z,1022.48
2022-09-21T10:52:15.180Z,1022.52
2022-09-21T10:53:15.137Z,1022.50
2022-09-21T10:54:15.107Z,1022.51
2022-09-21T10:55:15.084Z,1022.51
2022-09-21T10:56:16.319Z,1022.49
2022-09-21T10:57:15.014Z,1022.51
2022-09-21T10:58:14.995Z,1022.50
2022-09-21T10:59:14.956Z,1022.47
2022-09-21T11:00:14.918Z,1022.52
2022-09-21T11:01:16.003Z,1022.47
2022-09-21T11:02:14.890Z,1022.43
2022-09-21T11:03:14.823Z,1022.45
2022-09-21T11:04:14.811Z,1022.46
2022-09-21T11:05:14.763Z,1022.43
2022-09-21T11:06:14.740Z,1022.43
2022-09-21T11:07:14.700Z,1022.40
2022-09-21T11:08:14.683Z,1022.38
2022-09-21T11:09:14.635Z,1022.44
2022-09-21T11:10:14.612Z,1022.39
2022-09-21T11:11:14.576Z,1022.48
2022-09-21T11:12:14.545Z,1022.76
2022-09-21T11:13:14.512Z,1022.45
2022-09-21T11:14:14.494Z,1022.44
2022-09-21T11:15:14.446Z,1022.48
2022-09-21T11:16:14.455Z,1022.47
2022-09-21T11:17:14.386Z,1022.51
2022-09-21T11:18:14.363Z,1022.51
2022-09-21T11:19:14.324Z,1022.47
2022-09-21T11:20:14.301Z,1022.45
2022-09-21T11:21:14.266Z,1022.42
2022-09-21T11:22:14.231Z,1022.45
2022-09-21T11:23:14.202Z,1022.35
2022-09-21T11:24:14.170Z,1022.46
2022-09-21T11:25:14.138Z,1022.23
2022-09-21T11:26:14.122Z,1022.40
2022-09-21T11:27:14.073Z,1022.44
2022-09-21T11:28:14.050Z,1022.06
2022-09-21T11:29:14.052Z,1022.48
2022-09-21T11:30:13.987Z,1022.44
2022-09-21T11:31:14.014Z,1022.48
2022-09-21T11:32:13.930Z,1022.41
2022-09-21T11:33:13.891Z,1022.15
2022-09-21T11:34:13.859Z,1022.45
2022-09-21T11:35:13.825Z,1022.36
2022-09-21T11:36:13.797Z,1022.41
2022-09-21T11:37:13.774Z,1022.31
2022-09-21T11:38:13.734Z,1022.24
2022-09-21T11:39:13.697Z,1022.18
2022-09-21T11:40:13.690Z,1021.84
2022-09-21T11:41:13.637Z,1021.85
2022-09-21T11:42:13.606Z,1021.81
2022-09-21T11:43:13.584Z,1021.85
2022-09-21T11:44:17.775Z,1022.24
2022-09-21T11:45:13.518Z,1022.28
2022-09-21T11:46:13.553Z,1022.06
2022-09-21T11:47:13.442Z,1021.84
2022-09-21T11:48:13.417Z,1021.78
2022-09-21T11:49:13.403Z,1021.85
2022-09-21T11:50:29.902Z,1021.81
2022-09-21T11:51:13.321Z,1021.83
2022-09-21T11:52:13.291Z,1022.05
2022-09-21T11:53:13.269Z,1021.99
2022-09-21T11:54:13.228Z,1021.99
2022-09-21T11:55:13.189Z,1021.97
2022-09-21T11:56:13.162Z,1021.85
2022-09-21T11:57:13.130Z,1021.81
2022-09-21T11:58:13.121Z,1021.87
2022-09-21T11:59:13.068Z,1022.16
2022-09-21T12:00:13.031Z,1022.16
2022-09-21T12:01:13.002Z,1022.16
2022-09-21T12:02:13.026Z,1021.95
2022-09-21T12:03:12.939Z,1021.93
2022-09-21T12:04:12.914Z,1022.11
2022-09-21T12:05:12.873Z,1022.05
2022-09-21T12:06:12.838Z,1021.89
2022-09-21T12:07:12.813Z,1022.02